Weather reports worldwide

Advertisment
Stansted, United Kingdom (3683): temperature & dewpoint: 22.10.2020 14:00:00 - 28.10.2020 14:00:00 (GMT)Stansted, United Kingdom (3683): wind speed: 22.10.2020 14:00:00 - 28.10.2020 14:00:00 (GMT)Stansted, United Kingdom (3683): wind direction: 22.10.2020 14:00:00 - 28.10.2020 14:00:00 (GMT)Stansted, United Kingdom (3683): visibility: 22.10.2020 14:00:00 - 28.10.2020 14:00:00 (GMT)
Date & Time tt [°C] td [°C] ff [km/h] ff [kn] dd vv [km]
28.10.2020 14:00:00 12,0 8,0 21 11 SSW 10
28.10.2020 13:00:00 12,0 7,0 26 14 SW 10
28.10.2020 12:00:00 12,0 8,0 24 13 SW 10
28.10.2020 11:00:00 11,0 8,0 28 15 SW 10
28.10.2020 10:00:00 11,0 7,0 28 15 SW 10
28.10.2020 09:00:00 9,0 7,0 16 9 SW 10
28.10.2020 08:00:00 8,0 6,0 18 10 SW 10
28.10.2020 07:00:00 6,0 5,0 15 8 SSW 10
28.10.2020 06:00:00 7,0 6,0 24 13 SW 10
28.10.2020 05:00:00 7,0 5,0 22 12 SSW 10
28.10.2020 04:00:00 7,0 6,0 24 13 SW 10
28.10.2020 03:00:00 7,0 6,0 16 9 SSW 10
28.10.2020 02:00:00 7,0 6,0 16 9 SSW 10
28.10.2020 01:00:00 7,0 6,0 13 7 SW 10
28.10.2020 00:00:00 7,0 6,0 16 9 SW 10
27.10.2020 23:00:00 8,0 6,0 21 11 SW 10
27.10.2020 22:00:00 7,0 6,0 18 10 SW 10
27.10.2020 21:00:00 8,0 6,0 16 9 SW 10
27.10.2020 20:00:00 8,0 7,0 13 7 SW 10
27.10.2020 19:00:00 10,0 8,0 18 10 WSW 10
27.10.2020 18:00:00 11,0 9,0 22 12 WSW 10
27.10.2020 17:00:00 12,0 11,0 16 9 WSW 10
27.10.2020 16:00:00 13,0 12,0 24 13 S 10
27.10.2020 15:00:00 12,0 12,0 29 16 S 3,9
27.10.2020 14:00:00 11,0 11,0 34 18 S 3,8
27.10.2020 13:00:00 11,0 10,0 26 14 S 10
27.10.2020 12:00:00 10,0 10,0 26 14 SSE 5
27.10.2020 11:00:00 9,0 9,0 21 11 S 7
27.10.2020 10:00:00 9,0 8,0 18 10 S 10
27.10.2020 09:00:00 8,0 7,0 13 7 SSE 10
27.10.2020 08:00:00 7,0 7,0 13 7 S 10
27.10.2020 07:00:00 7,0 6,0 11 6 S 10
27.10.2020 06:00:00 6,0 6,0 11 6 SSW 10
27.10.2020 05:00:00 6,0 6,0 11 6 SSW 10
27.10.2020 04:00:00 5,0 5,0 15 8 SW 10
27.10.2020 03:00:00 5,0 5,0 13 7 SSW 9
27.10.2020 02:00:00 5,0 5,0 15 8 SW 9
27.10.2020 01:00:00 5,0 5,0 15 8 SW 10
27.10.2020 00:00:00 4,0 4,0 13 7 SW 10
26.10.2020 23:00:00 4,0 4,0 11 6 SW 10
26.10.2020 22:00:00 5,0 5,0 13 7 SW 10
26.10.2020 21:00:00 7,0 5,0 11 6 WSW 10
26.10.2020 20:00:00 7,0 5,0 13 7 WSW 10
26.10.2020 19:00:00 7,0 5,0 15 8 WSW 10
26.10.2020 18:00:00 9,0 6,0 13 7 WSW 10
26.10.2020 17:00:00 11,0 6,0 15 8 W 10
26.10.2020 16:00:00 12,0 7,0 18 10 W 10
26.10.2020 15:00:00 13,0 8,0 16 9 W 10
26.10.2020 14:00:00 12,0 8,0 16 9 WSW 10
26.10.2020 13:00:00 12,0 8,0 22 12 WSW 10
26.10.2020 12:00:00 11,0 8,0 22 12 WSW 10
26.10.2020 11:00:00 11,0 8,0 24 13 SW 10
26.10.2020 10:00:00 10,0 7,0 22 12 SSW 10
26.10.2020 09:00:00 8,0 7,0 22 12 SW 10
26.10.2020 08:00:00 7,0 6,0 18 10 SSW 10
26.10.2020 07:00:00 5,0 5,0 16 9 SSW 10
26.10.2020 06:00:00 5,0 5,0 13 7 S 10
26.10.2020 05:00:00 6,0 5,0 13 7 SSW 10
26.10.2020 04:00:00 6,0 5,0 13 7 SSW 10
26.10.2020 03:00:00 6,0 6,0 15 8 SSW 10
26.10.2020 02:00:00 7,0 6,0 15 8 SSW 10
26.10.2020 01:00:00 6,0 6,0 11 6 S 10
26.10.2020 00:00:00 7,0 6,0 16 9 S 10
25.10.2020 23:00:00 7,0 6,0 13 7 S 10
25.10.2020 22:00:00 7,0 6,0 13 7 SSW 10
25.10.2020 21:00:00 7,0 6,0 15 8 SSW 10
25.10.2020 20:00:00 8,0 7,0 16 9 S 10
25.10.2020 19:00:00 8,0 7,0 13 7 S 10
25.10.2020 18:00:00 8,0 7,0 15 8 S 10
25.10.2020 17:00:00 9,0 7,0 15 8 S 10
25.10.2020 16:00:00 11,0 7,0 18 10 S 10
25.10.2020 15:00:00 12,0 7,0 22 12 S 10
25.10.2020 14:00:00 11,0 7,0 22 12 S 10
25.10.2020 13:00:00 12,0 7,0 22 12 S 10
25.10.2020 12:00:00 11,0 7,0 21 11 SSW 10
25.10.2020 11:00:00 11,0 8,0 24 13 SSW 10
25.10.2020 10:00:00 10,0 8,0 22 12 SSW 10
25.10.2020 09:00:00 9,0 7,0 18 10 S 10
25.10.2020 08:00:00 8,0 8,0 15 8 S 10
25.10.2020 07:00:00 7,0 6,0 11 6 S 10
25.10.2020 06:00:00 8,0 7,0 16 9 SSW 10
25.10.2020 05:00:00 7,0 7,0 13 7 SSW 10
25.10.2020 04:00:00 8,0 7,0 15 8 SW 10
25.10.2020 03:00:00 8,0 8,0 16 9 SW 10
25.10.2020 02:00:00 9,0 9,0 18 10 SW 10
25.10.2020 01:00:00 10,0 9,0 18 10 SSW 10
25.10.2020 00:00:00 - - - - - -
24.10.2020 23:00:00 11,0 10,0 18 10 SSW 10
24.10.2020 22:00:00 11,0 11,0 24 13 WSW 10
24.10.2020 21:00:00 13,0 12,0 31 17 SSW 10
24.10.2020 20:00:00 12,0 12,0 24 13 SW 10
24.10.2020 19:00:00 14,0 14,0 46 25 SSW 7
24.10.2020 18:00:00 15,0 13,0 42 23 S 8
24.10.2020 17:00:00 15,0 13,0 41 22 S 10
24.10.2020 16:00:00 15,0 13,0 37 20 S 10
24.10.2020 15:00:00 15,0 13,0 34 18 S 10
24.10.2020 14:00:00 14,0 13,0 34 18 S 3,9
24.10.2020 13:00:00 14,0 12,0 31 17 S 10
24.10.2020 12:00:00 14,0 11,0 29 16 S 10
24.10.2020 11:00:00 14,0 11,0 28 15 S 10
24.10.2020 10:00:00 13,0 11,0 28 15 SSW 10
24.10.2020 09:00:00 11,0 9,0 24 13 S 10
24.10.2020 08:00:00 10,0 9,0 21 11 S 10
24.10.2020 07:00:00 9,0 8,0 18 10 S 10
24.10.2020 06:00:00 8,0 7,0 18 10 S 10
24.10.2020 05:00:00 8,0 7,0 15 8 S 10
24.10.2020 04:00:00 8,0 6,0 9 5 S 10
24.10.2020 03:00:00 6,0 5,0 11 6 S 10
24.10.2020 02:00:00 5,0 5,0 8 4 SSE 10
24.10.2020 01:00:00 5,0 4,0 11 6 S 10
24.10.2020 00:00:00 5,0 4,0 11 6 SSW 10
23.10.2020 23:00:00 5,0 4,0 13 7 SW 10
23.10.2020 22:00:00 7,0 5,0 13 7 SW 10
23.10.2020 21:00:00 9,0 6,0 15 8 WSW 10
23.10.2020 20:00:00 11,0 7,0 13 7 WSW 10
23.10.2020 19:00:00 12,0 6,0 21 11 WSW 10
23.10.2020 18:00:00 12,0 9,0 15 8 WSW 10
23.10.2020 17:00:00 12,0 10,0 13 7 WSW 10
23.10.2020 16:00:00 13,0 9,0 21 11 WSW 10
23.10.2020 15:00:00 15,0 9,0 29 16 SW 10
23.10.2020 14:00:00 15,0 11,0 26 14 SW 10
23.10.2020 13:00:00 15,0 11,0 26 14 SW 10
23.10.2020 12:00:00 14,0 12,0 22 12 SSW 10
23.10.2020 11:00:00 14,0 11,0 21 11 SSW 10
23.10.2020 10:00:00 14,0 12,0 24 13 SSW 10
23.10.2020 09:00:00 13,0 11,0 21 11 SSW 10
23.10.2020 08:00:00 12,0 11,0 15 8 S 10
23.10.2020 07:00:00 11,0 11,0 18 10 S 6
23.10.2020 06:00:00 11,0 11,0 22 12 S 4,3
23.10.2020 05:00:00 11,0 11,0 13 7 SSE 1,0
23.10.2020 04:00:00 11,0 11,0 13 7 S 1,4
23.10.2020 03:00:00 11,0 11,0 13 7 S 5
23.10.2020 02:00:00 10,0 9,0 8 4 SSE 5
23.10.2020 01:00:00 10,0 10,0 5 3 S 10
23.10.2020 00:00:00 10,0 10,0 4 2 SSW 10
22.10.2020 23:00:00 11,0 10,0 5 3 SW 5
22.10.2020 22:00:00 11,0 9,0 4 2 - 10
22.10.2020 21:00:00 11,0 10,0 5 3 SSW 10
22.10.2020 20:00:00 11,0 9,0 8 4 SW 10
22.10.2020 19:00:00 11,0 9,0 5 3 WSW 10
22.10.2020 18:00:00 11,0 9,0 5 3 W 10
22.10.2020 17:00:00 13,0 9,0 11 6 WSW 10
22.10.2020 16:00:00 14,0 9,0 13 7 WSW 10
22.10.2020 15:00:00 14,0 8,0 16 9 WSW 10
22.10.2020 14:00:00 14,0 9,0 18 10 W 10

tt = temperature
td = dewpoint
ff = wind speed
dd = wind direction
vv = visibility

Next stations